AirNav   Air Wisconsin Up To $57,000 Bonus
 
 1532 users online  

94C Gilbert Field Airport
Rio, Wisconsin, USA

GOING TO RIO?


FAA INFORMATION EFFECTIVE 31 DECEMBER 2020

Location

FAA Identifier: 94C
Lat/Long: 43-26-59.9470N 089-15-00.4170W
43-26.999117N 089-15.006950W
43.4499853,-89.2501158
(estimated)
Elevation: 925 ft. / 281.9 m (surveyed)
Variation: 00W (1985)
From city: 1 mile W of RIO, WI
Time zone: UTC -6 (UTC -5 during Daylight Saving Time)
Zip code: 53960

Airport Operations

Airport use: Open to the public
Activation date: 08/1963
Control tower: no
ARTCC: CHICAGO CENTER
FSS: GREEN BAY FLIGHT SERVICE STATION
NOTAMs facility: GRB (NOTAM-D service available)
Attendance: UNATNDD
Wind indicator: yes
Segmented circle: no

Airport Communications

CTAF: 122.9
WX ASOS at MSN (19 nm S): PHONE 608-249-0615

Nearby radio navigation aids

VOR radial/distance  VOR name  Freq  Var
MSNr009/18.7MADISON VORTAC108.6003E
DLLr102/23.2DELLS VORTAC117.0003E

 
NDB name  Hdg/Dist  Freq  Var  ID
JUNEAU274/23.934401WUNU ..- -. ..-
ROCK RIVER307/28.337101WRYV .-. -.-- ...-

Airport Services

Parking: tiedowns
Airframe service: NONE
Powerplant service: NONE
Bottled oxygen: NONE
Bulk oxygen: NONE

Runway Information

Runway 9/27

Dimensions: 1092 x 65 ft. / 333 x 20 m
Surface: turf, in fair condition
Runway edge markings: 09/27 THLDS MKD WITH ORANGE CONES.
RUNWAY 9  RUNWAY 27
Latitude: 43-27.099000N43-27.099000N
Longitude: 089-15.389833W089-15.107333W
Elevation: 940.0 ft.940.0 ft.
Traffic pattern: leftleft
Runway end identifier lights: nono
Obstructions: 76 ft. trees, 840 ft. from runway, 175 ft. left of centerline, 11:1 slope to clear65 ft. tree, 585 ft. from runway, 150 ft. left of centerline, 9:1 slope to clear

Airport Ownership and Management from official FAA records

Ownership: Privately-owned
Owner: RIO AERO CLUB, INC
5019 HWY 116
RIO, WI 53960
Phone 920-214-5917
Manager: TODD ROAT
PO BOX 184
RIO, WI 53960
Phone 920-214-5917
EMAIL ADDRESS: RIOAEROCLUB@GMAIL.COM

Airport Operational Statistics

Aircraft based on the field: 10
Single engine airplanes: 8
Ultralights: 2
    
Aircraft operations: avg 111/week *
65% local general aviation
34% transient general aviation
<1% military
* for 12-month period ending 17 June 2020

Additional Remarks

CFM WINTER RWY CONDS & SN REMOVAL CALL 920-214-5917.
FOR CD CTC CHICAGO ARTCC AT 630-906-8921.

Instrument Procedures

There are no published instrument procedures at 94C.

Some nearby airports with instrument procedures:

C47 - Portage Municipal Airport (12 nm NW)
KMSN - Dane County Regional Airport-Truax Field (19 nm S)
87Y - Blackhawk Airfield (21 nm S)
KDLL - Baraboo-Wisconsin Dells Regional Airport (23 nm W)
C29 - Middleton Municipal Airport - Morey Field (24 nm SW)
 
Loc | Ops | Rwys | IFR | FBO | Links
Com | Nav | Svcs | Stats | Notes
Area around 94C (Gilbert Field Airport)
 
Road maps at: MapQuest Bing Google
 
Aerial photo
WARNING: Photo may not be current or correct
Aerial photo of 94C (Gilbert Field Airport)
Photo taken 24-Apr-2018
looking south.

Do you have a better or more recent aerial photo of Gilbert Field Airport that you would like to share? If so, please send us your photo.

 
Sectional chart

 
Airport distance calculator
Flying to Gilbert Field Airport? Find the distance to fly.

From to 94C

Sunrise and sunset
Times for 25-Jan-2021
 Local
(UTC-6)
 Zulu
(UTC)
Morning civil twilight06:5012:50
Sunrise07:2113:21
Sunset16:5822:58
Evening civil twilight17:2923:29

Current date and time
Zulu (UTC)  25-Jan-2021 18:38:28
Local (UTC-6)  25-Jan-2021 12:38:28
 
METAR
KMSN 
19nm S 
251753Z 03012KT 10SM OVC200 M08/M13 A3007 RMK AO2 SLP201 4/007 933011 I6000 T10831128 11083 21139 58016
KDLL 
23nm W 
251815Z AUTO 06007KT 10SM CLR M10/M12 A3008 RMK AO2 T10961119
KC29 
24nm SW 
251815Z AUTO 03011KT 10SM CLR M07/M12 A3005 RMK AO1 T10671125
KUNU 
24nm E 
251815Z AUTO 02011KT 10SM CLR M09/M11 A3008 RMK AO2 T10861110
KRYV 
29nm SE 
251815Z AUTO 03010KT 10SM SCT019 M06/M11 A3005 RMK AO2 T10651115
KC35 
32nm W 
251815Z AUTO 05008KT 10SM CLR M07/M13 A3007 RMK AO2 T10751135 PWINO
KY50 
36nm N 
251756Z AUTO 05006KT 10SM CLR M08/M13 RMK AO2 SLPNO 6//// T10781128 11078 21200 FZRANO $
KFLD 
38nm NE 
251753Z AUTO 02010KT 10SM CLR M08/M13 A3012 RMK AO2 SLP216 I6000 T10781133 11078 21189 58010
TAF
KMSN 
19nm S 
251740Z 2518/2618 02010G17KT P6SM BKN200 FM252300 05014G22KT P6SM OVC100 FM260100 05014G23KT P6SM OVC017 FM260600 05015KT 1SM -SN BLSN OVC016 FM261600 02015KT 2SM -SN BLSN OVC017
NOTAMs
Click for the latest NOTAMs
NOTAMs are issued by the DoD/FAA and will open in a separate window not controlled by AirNav.

 

 
 

Would you like to see your business listed on this page?

 If your business provides an interesting product or service to pilots, flight crews, aircraft, or users of the Gilbert Field Airport, you should consider listing it here.  To start the listing process, click on the button below
 
Add a business
 

Other Pages about Gilbert Field Airport

Page from the Wisconsin airport directory (PDF)
 
Update a link
 
Copyright © AirNav, LLC. All rights reserved. Privacy Policy  Contact